Time;durP1;ratioP1;P1;durP2;ratioP2;P2;SDS_P1;SDS_P2;PMS_P1;PMS_P2;Temp;Humidity;BMP_temperature;BMP_pressure;BME280_temperature;BME280_humidity;BME280_pressure;Samples;Min_cycle;Max_cycle;Signal;HPM_P1;HPM_P2
2023/05/19 04:15:53;;;;;;;8.68;4.95;;;;;;;23.71;43.88;96671.00;5068495;27;20673;-57
2023/05/19 04:18:22;;;;;;;9.35;4.72;;;;;;;22.98;45.49;96674.25;5054007;28;20085;-58
2023/05/19 04:20:50;;;;;;;11.77;5.03;;;;;;;23.93;43.67;96668.69;5060075;28;20085;-54
2023/05/19 04:23:19;;;;;;;10.15;4.78;;;;;;;23.26;44.51;96665.75;5063788;28;20469;-57
2023/05/19 04:25:48;;;;;;;11.45;5.35;;;;;;;23.40;44.34;96675.41;5065804;28;20080;-53
2023/05/19 04:28:22;;;;;;;13.85;5.55;;;;;;;23.79;43.38;96673.38;5065450;28;20052;-55
2023/05/19 04:30:58;;;;;;;14.90;5.75;;;;;;;24.14;43.18;96673.63;5071831;28;20056;-58
2023/05/19 04:33:46;;;;;;;11.15;5.07;;;;;;;23.52;44.00;96680.03;5071707;28;20049;-52
2023/05/19 04:36:23;;;;;;;10.38;6.00;;;;;;;23.13;45.82;96671.28;5065827;28;20064;-54
2023/05/19 04:39:01;;;;;;;12.40;5.50;;;;;;;24.24;43.71;96667.72;5060891;28;20071;-57
2023/05/19 04:41:30;;;;;;;9.25;4.72;;;;;;;23.55;44.68;96671.53;5054604;28;20214;-57
2023/05/19 04:43:58;;;;;;;9.63;4.90;;;;;;;24.19;43.29;96664.88;5058712;28;20106;-55
2023/05/19 04:46:29;;;;;;;11.90;5.32;;;;;;;23.44;44.96;96668.50;5054544;28;20107;-55
2023/05/19 04:49:00;;;;;;;;;;;;;;;23.81;44.10;96663.22;5061588;28;20052;-56
2023/05/19 04:51:35;;;;;;;9.48;5.50;;;;;;;23.88;44.25;96663.97;5067036;28;20087;-58
2023/05/19 04:54:10;;;;;;;7.45;4.07;;;;;;;23.76;44.89;96665.75;5063447;28;20151;-55
2023/05/19 04:56:51;;;;;;;8.45;3.35;;;;;;;23.82;43.91;96661.34;5057981;28;20471;-59
2023/05/19 04:59:19;;;;;;;12.43;5.55;;;;;;;23.45;46.11;96670.16;5062022;28;20088;-57
2023/05/19 05:01:49;;;;;;;11.15;4.70;;;;;;;24.52;43.34;96666.34;5056817;28;20115;-58
2023/05/19 05:04:18;;;;;;;9.20;5.20;;;;;;;24.36;43.66;96667.75;5062904;28;20111;-58
2023/05/19 05:06:47;;;;;;;12.32;5.60;;;;;;;24.05;43.80;96668.75;5057072;28;20095;-58
2023/05/19 05:09:16;;;;;;;8.77;5.20;;;;;;;24.49;43.58;96666.81;5062154;28;20092;-58
2023/05/19 05:11:45;;;;;;;11.32;5.82;;;;;;;24.07;44.63;96661.28;5054449;28;20088;-59
2023/05/19 05:14:14;;;;;;;13.85;5.60;;;;;;;24.22;44.26;96660.88;5064698;28;20084;-59
2023/05/19 05:16:42;;;;;;;11.95;5.60;;;;;;;24.99;42.93;96661.13;5060135;28;20080;-59
2023/05/19 05:19:13;;;;;;;12.25;5.80;;;;;;;24.25;45.16;96658.56;5056434;28;20638;-59
2023/05/19 05:21:42;;;;;;;11.38;5.60;;;;;;;25.25;42.82;96649.91;5059664;28;20111;-59
2023/05/19 05:24:11;;;;;;;15.45;6.30;;;;;;;23.97;44.67;96652.91;5061060;28;20106;-59
2023/05/19 05:26:40;;;;;;;8.90;5.53;;;;;;;25.70;42.02;96648.53;5048210;28;20128;-59
2023/05/19 05:29:09;;;;;;;11.00;5.35;;;;;;;25.25;42.56;96641.81;5042796;28;20506;-60
2023/05/19 05:31:37;;;;;;;13.73;6.03;;;;;;;25.07;43.46;96631.09;5047435;28;20085;-59
2023/05/19 05:34:07;;;;;;;12.10;5.85;;;;;;;25.43;42.21;96634.66;5046332;28;20509;-58
2023/05/19 05:36:36;;;;;;;6.63;4.40;;;;;;;25.11;42.38;96632.31;5039734;28;20081;-58
2023/05/19 05:39:05;;;;;;;8.98;4.18;;;;;;;25.36;41.71;96640.19;5043738;28;20067;-59
2023/05/19 05:41:34;;;;;;;11.30;5.05;;;;;;;24.30;44.10;96644.44;5042882;28;20084;-59
2023/05/19 05:44:03;;;;;;;10.27;5.78;;;;;;;24.57;44.32;96643.06;5046907;28;20091;-59
2023/05/19 05:46:31;;;;;;;12.57;5.75;;;;;;;24.17;44.39;96640.84;5048375;28;20084;-59
2023/05/19 05:49:00;;;;;;;11.68;5.88;;;;;;;25.34;42.68;96642.31;5047407;28;20089;-58
2023/05/19 05:51:31;;;;;;;11.23;4.78;;;;;;;25.18;43.11;96646.50;5040073;28;20087;-60
2023/05/19 05:54:02;;;;;;;17.02;6.60;;;;;;;24.79;43.60;96646.03;5051208;28;20103;-58
2023/05/19 05:56:32;;;;;;;12.57;5.70;;;;;;;25.23;42.44;96638.56;5039630;28;20083;-60
2023/05/19 05:59:00;;;;;;;;;;;;;;;24.67;43.99;96649.75;5044099;28;20087;-58
2023/05/19 06:01:30;;;;;;;17.77;6.93;;;;;;;24.63;43.87;96639.41;5041816;28;20371;-59
2023/05/19 06:04:02;;;;;;;11.38;7.13;;;;;;;24.23;45.04;96649.91;5041736;28;20081;-57
2023/05/19 06:06:30;;;;;;;12.70;6.35;;;;;;;26.41;41.35;96643.84;5043483;28;20092;-58
2023/05/19 06:08:58;;;;;;;9.63;5.28;;;;;;;24.51;44.04;96651.22;5039455;28;20473;-59
2023/05/19 06:11:28;;;;;;;14.98;7.00;;;;;;;25.25;42.83;96647.22;5047804;28;20489;-55
2023/05/19 06:13:56;;;;;;;13.60;6.70;;;;;;;25.24;41.83;96645.59;5047655;28;20100;-58
2023/05/19 06:16:24;;;;;;;13.07;6.65;;;;;;;26.60;39.67;96641.78;5044862;28;20100;-59
2023/05/19 06:18:53;;;;;;;11.65;6.07;;;;;;;25.00;41.88;96647.38;5047803;28;20096;-56
2023/05/19 06:21:21;;;;;;;10.77;5.97;;;;;;;25.37;41.33;96646.44;5047943;28;20092;-57
2023/05/19 06:23:49;;;;;;;10.52;6.15;;;;;;;25.71;40.84;96655.59;5043230;28;20091;-57
2023/05/19 06:26:18;;;;;;;12.98;6.63;;;;;;;25.64;41.33;96649.50;5041293;28;20069;-58
2023/05/19 06:28:47;;;;;;;7.05;4.68;;;;;;;25.34;42.21;96647.72;5044386;28;20426;-57
2023/05/19 06:31:16;;;;;;;11.90;5.60;;;;;;;25.24;41.37;96650.16;5043037;28;20088;-55
2023/05/19 06:33:44;;;;;;;8.30;5.13;;;;;;;25.32;41.54;96649.81;5046364;28;20117;-57
2023/05/19 06:36:13;;;;;;;13.35;7.00;;;;;;;25.17;41.85;96644.88;5044136;28;20054;-57
2023/05/19 06:38:41;;;;;;;12.70;6.18;;;;;;;24.50;42.93;96650.41;5042669;28;20085;-56
2023/05/19 06:41:09;;;;;;;10.63;6.43;;;;;;;24.73;42.75;96649.66;5049454;28;20480;-58
2023/05/19 06:43:37;;;;;;;9.00;5.75;;;;;;;24.50;42.63;96646.88;5041412;28;20088;-56
2023/05/19 06:46:07;;;;;;;14.50;6.03;;;;;;;24.92;42.41;96657.72;5040702;28;20077;-58
2023/05/19 06:48:36;;;;;;;11.40;6.63;;;;;;;24.15;44.06;96655.56;5046566;28;20084;-57
2023/05/19 06:51:04;;;;;;;13.48;5.88;;;;;;;24.62;43.02;96648.56;5037694;28;20081;-55
2023/05/19 06:53:33;;;;;;;12.18;6.93;;;;;;;24.43;42.93;96663.13;5043541;28;20437;-59
2023/05/19 06:56:02;;;;;;;10.90;6.28;;;;;;;25.85;40.61;96657.03;5038747;28;20068;-57
2023/05/19 06:58:30;;;;;;;9.98;5.43;;;;;;;26.01;39.93;96655.44;5062591;28;20091;-59
2023/05/19 07:00:59;;;;;;;13.88;7.07;;;;;;;25.05;41.26;96652.09;5047196;28;20075;-58
2023/05/19 07:03:29;;;;;;;10.85;5.50;;;;;;;25.18;41.04;96646.50;5042169;28;20080;-59
2023/05/19 07:05:58;;;;;;;9.07;6.10;;;;;;;26.65;39.21;96653.53;5047603;28;20080;-58
2023/05/19 07:08:26;;;;;;;15.20;6.25;;;;;;;26.46;39.52;96641.22;5047883;28;20065;-58
2023/05/19 07:10:55;;;;;;;11.95;6.97;;;;;;;26.07;39.41;96656.41;5045589;28;20562;-59
2023/05/19 07:13:24;;;;;;;9.98;5.85;;;;;;;25.19;40.15;96641.94;5041204;28;20065;-54
2023/05/19 07:15:54;;;;;;;;;;;;;;;26.93;38.24;96643.75;5046201;28;20081;-57
2023/05/19 07:18:23;;;;;;;8.52;5.30;;;;;;;25.56;38.92;96647.94;5043412;28;19952;-57
2023/05/19 07:20:53;;;;;;;11.23;6.32;;;;;;;25.79;38.73;96645.28;5043008;28;20069;-58
2023/05/19 07:23:21;;;;;;;7.97;4.75;;;;;;;25.43;38.65;96650.88;5038323;28;20081;-58
2023/05/19 07:25:49;;;;;;;8.40;5.38;;;;;;;25.72;38.64;96649.94;5041793;28;20092;-59
2023/05/19 07:28:18;;;;;;;9.88;6.25;;;;;;;24.60;39.65;96652.53;5044217;28;20100;-57
2023/05/19 07:30:46;;;;;;;9.70;5.85;;;;;;;25.17;39.40;96649.44;5043542;28;20081;-58
2023/05/19 07:33:14;;;;;;;10.57;5.45;;;;;;;26.66;37.26;96638.94;5044071;28;20068;-57
2023/05/19 07:35:44;;;;;;;10.07;5.75;;;;;;;27.13;36.66;96637.91;5043946;28;20558;-58
2023/05/19 07:38:14;;;;;;;8.45;5.30;;;;;;;26.24;38.12;96644.59;5043181;28;20045;-55
2023/05/19 07:40:42;;;;;;;9.57;5.37;;;;;;;27.34;36.48;96636.34;5047369;28;20080;-57
2023/05/19 07:43:11;;;;;;;5.95;4.07;;;;;;;27.63;35.47;96631.63;5045436;28;20510;-58
2023/05/19 07:45:39;;;;;;;7.93;5.00;;;;;;;26.98;36.29;96641.16;5042857;28;20087;-58
2023/05/19 07:48:07;;;;;;;8.05;4.57;;;;;;;26.63;35.87;96636.72;5046018;28;20076;-57
2023/05/19 07:50:36;;;;;;;7.80;5.13;;;;;;;26.00;36.90;96643.00;5037186;28;20087;-55
2023/05/19 07:53:04;;;;;;;7.97;5.32;;;;;;;25.87;37.55;96640.56;5043234;28;20085;-59
2023/05/19 07:55:34;;;;;;;7.95;5.55;;;;;;;26.57;36.52;96635.00;5042985;28;20099;-58
2023/05/19 07:58:02;;;;;;;6.88;5.00;;;;;;;26.48;36.21;96636.44;5038860;28;20077;-56
2023/05/19 08:00:30;;;;;;;10.68;5.80;;;;;;;25.47;37.96;96641.28;5041383;28;20151;-56
2023/05/19 08:03:00;;;;;;;9.07;4.95;;;;;;;26.55;36.62;96630.88;5037046;28;20108;-59
2023/05/19 08:05:29;;;;;;;8.73;5.20;;;;;;;27.14;35.65;96629.53;5039374;28;20084;-58
2023/05/19 08:07:58;;;;;;;8.43;5.20;;;;;;;26.65;36.42;96645.41;5039046;28;20085;-56
2023/05/19 08:10:26;;;;;;;6.57;4.45;;;;;;;26.00;36.72;96643.00;5042512;28;20084;-58
2023/05/19 08:12:55;;;;;;;8.93;4.97;;;;;;;27.24;35.61;96636.19;5044274;28;20076;-57
2023/05/19 08:15:24;;;;;;;6.82;5.07;;;;;;;26.10;37.22;96643.22;5043899;28;20067;-58
2023/05/19 08:17:53;;;;;;;9.13;5.40;;;;;;;25.69;37.91;96650.41;5037839;28;20088;-57
2023/05/19 08:20:23;;;;;;;7.32;5.25;;;;;;;26.04;37.42;96641.47;5043096;28;20080;-56
2023/05/19 08:22:51;;;;;;;7.65;5.05;;;;;;;26.20;37.05;96640.72;5048701;28;20069;-59
2023/05/19 08:25:20;;;;;;;8.63;5.55;;;;;;;27.07;36.33;96625.31;5039338;28;20073;-55
2023/05/19 08:27:48;;;;;;;7.20;4.28;;;;;;;26.01;36.84;96634.66;5039885;28;20087;-57
2023/05/19 08:30:18;;;;;;;9.25;5.00;;;;;;;27.35;35.43;96622.53;5040549;28;20077;-59
2023/05/19 08:32:47;;;;;;;7.23;4.93;;;;;;;27.03;35.82;96626.88;5042640;28;20076;-58
2023/05/19 08:35:16;;;;;;;9.68;4.68;;;;;;;26.96;36.08;96635.97;5043461;28;20533;-59
2023/05/19 08:37:45;;;;;;;7.32;4.70;;;;;;;26.46;36.63;96649.34;5056132;28;20068;-55
2023/05/19 08:40:16;;;;;;;9.75;5.25;;;;;;;27.06;36.05;96643.44;5041600;28;20445;-57
2023/05/19 08:42:45;;;;;;;7.38;5.30;;;;;;;25.47;37.61;96647.50;5043936;28;20068;-58
2023/05/19 08:45:13;;;;;;;6.95;5.15;;;;;;;25.46;37.72;96647.72;5039470;28;20080;-57
2023/05/19 08:47:45;;;;;;;9.88;5.75;;;;;;;25.11;38.80;96640.41;5041300;28;20076;-58
2023/05/19 08:50:17;;;;;;;9.07;5.22;;;;;;;26.41;36.91;96641.13;5044645;28;20072;-58
2023/05/19 08:52:51;;;;;;;9.68;5.07;;;;;;;25.81;37.33;96639.66;5047339;28;20049;-60
2023/05/19 08:55:32;;;;;;;6.03;3.65;;;;;;;25.64;37.85;96646.78;5041583;28;20108;-57
2023/05/19 08:58:02;;;;;;;6.47;3.78;;;;;;;25.72;37.93;96649.94;5030467;28;20465;-58
2023/05/19 09:00:30;;;;;;;8.07;5.25;;;;;;;27.35;35.86;96629.84;5039887;28;20072;-58
2023/05/19 09:03:02;;;;;;;7.97;5.47;;;;;;;26.84;36.73;96637.09;5060681;28;20076;-57
2023/05/19 09:05:45;;;;;;;10.50;5.63;;;;;;;26.53;36.56;96639.22;5045526;28;20085;-59
2023/05/19 09:08:14;;;;;;;8.65;5.47;;;;;;;26.64;36.79;96632.97;5045968;28;20103;-56
2023/05/19 09:10:43;;;;;;;8.27;5.38;;;;;;;26.38;36.60;96628.91;5050736;28;23439;-57
2023/05/19 09:13:11;;;;;;;7.40;4.70;;;;;;;26.44;36.24;96632.56;5049779;28;20123;-59
2023/05/19 09:15:41;;;;;;;7.68;4.82;;;;;;;26.63;36.97;96627.78;5048422;28;20469;-58
2023/05/19 09:18:12;;;;;;;9.35;5.35;;;;;;;26.88;36.24;96627.44;5042138;28;20136;-58
2023/05/19 09:20:43;;;;;;;7.93;5.43;;;;;;;25.87;36.71;96644.06;5042402;28;20444;-57
2023/05/19 09:23:17;;;;;;;8.65;5.40;;;;;;;26.69;37.00;96634.94;5045638;28;20069;-58
2023/05/19 09:25:49;;;;;;;9.60;5.65;;;;;;;26.02;37.26;96644.41;5047377;28;20084;-58
2023/05/19 09:28:24;;;;;;;8.98;5.95;;;;;;;26.07;38.16;96646.41;5048736;28;20072;-56
2023/05/19 09:31:02;;;;;;;7.43;5.20;;;;;;;24.86;38.25;96643.25;5036867;28;20085;-58
2023/05/19 09:33:33;;;;;;;8.80;5.32;;;;;;;26.18;37.54;96639.31;5048142;28;20558;-57
2023/05/19 09:36:04;;;;;;;7.32;5.85;;;;;;;24.95;39.24;96632.94;5046752;28;20076;-54
2023/05/19 09:38:32;;;;;;;;;;;;;;;26.91;36.99;96630.47;5042277;28;20065;-57
2023/05/19 09:41:01;;;;;;;10.43;5.72;;;;;;;25.55;38.74;96638.22;5041507;28;19990;-58
2023/05/19 09:43:29;;;;;;;8.20;5.18;;;;;;;26.91;36.77;96633.19;5050035;28;20076;-57
2023/05/19 09:46:00;;;;;;;10.13;3.95;;;;;;;26.78;36.71;96628.06;5050257;28;20080;-58
2023/05/19 09:48:29;;;;;;;;;;;;;;;27.21;36.59;96629.34;5049771;28;20073;-58
2023/05/19 09:51:00;;;;;;;7.40;4.57;;;;;;;26.87;36.88;96620.38;5048977;28;19971;-57
2023/05/19 09:53:31;;;;;;;7.82;5.35;;;;;;;26.08;36.83;96639.94;5050749;28;20088;-57
2023/05/19 09:56:02;;;;;;;9.88;5.65;;;;;;;25.43;38.35;96627.41;5049695;28;20081;-57
2023/05/19 09:58:33;;;;;;;11.02;8.55;;;;;;;26.25;37.50;96637.31;5039641;28;20092;-58
2023/05/19 10:01:02;;;;;;;10.98;6.22;;;;;;;27.12;36.67;96620.84;5041802;28;20092;-57
2023/05/19 10:03:31;;;;;;;9.27;5.20;;;;;;;26.49;37.19;96622.66;5049161;28;20126;-56
2023/05/19 10:06:01;;;;;;;9.02;5.32;;;;;;;26.55;37.03;96617.38;5045748;28;20108;-57
2023/05/19 10:08:30;;;;;;;9.40;5.00;;;;;;;26.77;36.58;96617.47;5046404;28;20099;-57
2023/05/19 10:10:59;;;;;;;10.02;6.10;;;;;;;26.82;37.31;96621.09;5047877;28;20076;-54
2023/05/19 10:13:29;;;;;;;7.93;5.75;;;;;;;26.61;37.32;96614.50;5043259;28;20254;-57
2023/05/19 10:15:58;;;;;;;8.90;6.57;;;;;;;25.46;39.13;96621.53;5040727;28;20096;-59
2023/05/19 10:18:28;;;;;;;11.60;6.07;;;;;;;25.33;39.18;96624.47;5046847;28;20087;-56
2023/05/19 10:20:57;;;;;;;11.30;6.65;;;;;;;25.49;39.50;96625.63;5044385;28;20081;-54
2023/05/19 10:23:27;;;;;;;12.05;6.40;;;;;;;25.83;38.57;96618.59;5046588;28;20559;-56
2023/05/19 10:25:57;;;;;;;9.65;6.75;;;;;;;24.26;40.61;96619.81;5038771;28;20088;-57
2023/05/19 10:28:31;;;;;;;15.38;7.90;;;;;;;25.37;40.07;96619.44;5049566;28;20072;-56
2023/05/19 10:31:01;;;;;;;11.23;6.90;;;;;;;26.84;37.49;96612.72;5043050;28;20079;-58
2023/05/19 10:33:36;;;;;;;11.13;7.25;;;;;;;27.02;37.49;96609.81;5047796;28;20469;-58
2023/05/19 10:36:21;;;;;;;13.57;8.75;;;;;;;26.28;38.06;96616.00;5045385;28;20088;-57
2023/05/19 10:38:58;;;;;;;13.73;9.88;;;;;;;27.05;36.80;96614.75;5045597;28;20185;-55
2023/05/19 10:41:29;;;;;;;9.10;5.13;;;;;;;27.58;36.46;96613.41;5042361;28;20077;-58
2023/05/19 10:44:04;;;;;;;9.85;6.70;;;;;;;27.76;35.91;96597.97;5041196;28;20084;-58
2023/05/19 10:46:33;;;;;;;7.78;6.10;;;;;;;28.11;34.54;96606.56;5047469;28;20076;-56
2023/05/19 10:49:01;;;;;;;9.57;6.40;;;;;;;28.11;34.96;96603.03;5036962;28;20084;-57
2023/05/19 10:51:31;;;;;;;11.93;6.28;;;;;;;28.83;34.96;96600.03;5046606;28;20073;-57
2023/05/19 10:54:05;;;;;;;10.63;6.65;;;;;;;26.48;37.16;96615.63;5043469;28;20072;-57
2023/05/19 10:56:35;;;;;;;9.25;5.90;;;;;;;26.86;37.30;96608.72;5041569;28;20056;-58
2023/05/19 10:59:03;;;;;;;9.82;6.35;;;;;;;25.96;38.20;96617.53;5055298;28;20484;-58
2023/05/19 11:01:32;;;;;;;9.43;5.43;;;;;;;27.00;37.19;96609.22;5047688;28;20064;-57
2023/05/19 11:04:05;;;;;;;11.13;6.35;;;;;;;26.56;37.71;96606.28;5045833;28;20069;-57
2023/05/19 11:06:36;;;;;;;13.07;7.15;;;;;;;26.99;36.79;96602.19;5046546;28;20104;-57
2023/05/19 11:09:13;;;;;;;;;;;;;;;27.25;36.52;96605.31;5045931;28;20592;-57
2023/05/19 11:11:46;;;;;;;8.13;6.18;;;;;;;27.16;36.03;96599.50;5037868;28;19962;-57
2023/05/19 11:14:15;;;;;;;11.30;6.78;;;;;;;27.88;35.11;96598.69;5036475;28;20084;-58
2023/05/19 11:16:46;;;;;;;9.55;6.90;;;;;;;28.26;34.93;96592.38;5038621;28;20639;-60
2023/05/19 11:19:19;;;;;;;9.80;6.30;;;;;;;28.70;34.18;96581.47;5042821;28;20080;-57
2023/05/19 11:21:49;;;;;;;11.90;6.72;;;;;;;28.40;34.51;96587.41;5039820;28;20077;-55
2023/05/19 11:24:35;;;;;;;8.95;6.88;;;;;;;29.74;32.84;96582.00;5043547;28;20460;-58
2023/05/19 11:27:20;;;;;;;9.25;6.68;;;;;;;27.31;35.32;96588.91;5043819;28;20061;-58
2023/05/19 11:29:48;;;;;;;9.65;6.70;;;;;;;28.46;34.68;96588.25;5034966;28;20099;-58
2023/05/19 11:32:17;;;;;;;10.88;7.40;;;;;;;28.25;34.12;96595.31;5046382;28;20095;-59
2023/05/19 11:34:47;;;;;;;9.57;6.68;;;;;;;29.08;33.83;96587.81;5041460;28;20493;-60
2023/05/19 11:37:16;;;;;;;10.00;7.43;;;;;;;26.85;36.44;96601.69;5040459;28;20065;-56
2023/05/19 11:39:47;;;;;;;11.25;7.75;;;;;;;27.55;36.11;96591.41;5042695;28;20060;-57
2023/05/19 11:42:15;;;;;;;15.80;8.25;;;;;;;27.65;35.46;96602.41;5048309;28;20080;-58
2023/05/19 11:44:45;;;;;;;10.10;7.53;;;;;;;30.03;32.98;96591.38;5039983;28;20072;-57
2023/05/19 11:47:13;;;;;;;9.60;7.13;;;;;;;30.08;33.18;96589.78;5036618;28;20065;-58
2023/05/19 11:49:44;;;;;;;10.43;6.28;;;;;;;28.03;34.62;96596.16;5046058;28;20095;-60
2023/05/19 11:52:13;;;;;;;10.32;7.55;;;;;;;28.60;34.53;96592.22;5042551;28;20546;-58
2023/05/19 11:54:41;;;;;;;10.43;8.00;;;;;;;28.61;35.04;96589.25;5042660;28;20707;-58
2023/05/19 11:57:12;;;;;;;11.38;7.32;;;;;;;29.62;33.16;96586.81;5043086;28;20072;-60
2023/05/19 11:59:44;;;;;;;9.85;7.53;;;;;;;29.40;33.35;96585.03;5042737;28;20436;-58
2023/05/19 12:02:17;;;;;;;7.70;5.40;;;;;;;30.65;32.18;96578.00;5037486;28;20535;-59
2023/05/19 12:04:46;;;;;;;10.10;6.93;;;;;;;31.92;30.26;96580.69;5040837;28;20085;-58
2023/05/19 12:07:17;;;;;;;10.30;7.63;;;;;;;31.59;31.07;96579.41;5039387;28;20388;-59
2023/05/19 12:09:46;;;;;;;10.15;7.50;;;;;;;30.77;31.68;96583.22;5043233;28;20424;-56
2023/05/19 12:12:16;;;;;;;13.48;7.30;;;;;;;31.25;31.50;96581.03;5043005;28;20069;-57
2023/05/19 12:14:44;;;;;;;10.25;7.55;;;;;;;30.92;31.71;96589.50;5039208;28;20076;-58
2023/05/19 12:17:13;;;;;;;14.55;8.35;;;;;;;29.83;33.34;96591.28;5041901;28;20076;-58
2023/05/19 12:19:43;;;;;;;10.93;7.85;;;;;;;30.30;32.47;96584.19;5039742;28;20107;-58
2023/05/19 12:22:12;;;;;;;11.68;8.35;;;;;;;30.77;31.51;96578.59;5047451;28;20103;-54
2023/05/19 12:24:42;;;;;;;11.90;8.50;;;;;;;31.42;31.32;96568.00;5035751;28;20076;-58
2023/05/19 12:27:12;;;;;;;13.43;8.55;;;;;;;31.05;31.75;96560.91;5044394;28;20475;-58
2023/05/19 12:29:42;;;;;;;13.63;8.60;;;;;;;30.03;32.56;96580.50;5036111;28;20105;-58
2023/05/19 12:32:11;;;;;;;13.02;8.82;;;;;;;29.26;33.42;96578.41;5046247;28;20075;-58
2023/05/19 12:34:40;;;;;;;9.03;7.77;;;;;;;32.42;30.03;96563.56;5043655;28;20080;-58
2023/05/19 12:37:10;;;;;;;11.52;8.68;;;;;;;29.47;33.98;96571.22;5039714;28;20065;-59
2023/05/19 12:39:39;;;;;;;;;;;;;;;30.55;33.01;96559.72;5044032;28;20080;-59
2023/05/19 12:42:08;;;;;;;13.60;8.45;;;;;;;32.17;31.65;96550.84;5051407;28;20371;-57
2023/05/19 12:44:38;;;;;;;10.70;7.97;;;;;;;31.75;31.18;96549.34;5047660;28;20065;-58
2023/05/19 12:47:07;;;;;;;11.07;8.00;;;;;;;30.24;32.98;96565.09;5044390;28;20085;-58
2023/05/19 12:49:36;;;;;;;11.80;8.50;;;;;;;31.20;31.64;96551.88;5046455;28;20084;-57
2023/05/19 12:52:05;;;;;;;10.32;8.02;;;;;;;31.89;31.17;96542.22;5043064;28;20103;-58
2023/05/19 12:54:40;;;;;;;12.52;8.02;;;;;;;32.37;30.49;96543.34;5051557;28;20528;-59
2023/05/19 12:57:10;;;;;;;9.45;7.13;;;;;;;31.39;31.10;96544.81;5050228;28;20465;-58
2023/05/19 12:59:39;;;;;;;10.38;8.02;;;;;;;30.14;32.73;96561.50;5044345;28;20543;-57
2023/05/19 13:02:09;;;;;;;13.15;8.77;;;;;;;32.47;30.06;96542.50;5044726;28;20479;-57
2023/05/19 13:04:38;;;;;;;11.93;8.43;;;;;;;33.30;29.87;96541.59;5046902;28;20309;-57
2023/05/19 13:07:06;;;;;;;13.10;8.77;;;;;;;30.71;32.61;96544.25;5049657;28;20060;-59
2023/05/19 13:09:35;;;;;;;9.25;7.18;;;;;;;30.00;32.74;96553.84;5044780;28;20151;-58
2023/05/19 13:12:04;;;;;;;11.35;7.32;;;;;;;32.50;29.88;96535.69;5048792;28;20069;-58
2023/05/19 13:14:32;;;;;;;11.80;8.10;;;;;;;31.83;30.75;96537.84;5037514;28;20075;-59
2023/05/19 13:17:02;;;;;;;11.30;7.68;;;;;;;31.23;31.71;96540.44;5049300;28;20445;-59
2023/05/19 13:19:31;;;;;;;9.85;7.25;;;;;;;31.63;30.98;96547.75;5041423;28;20068;-53
2023/05/19 13:22:00;;;;;;;9.23;7.32;;;;;;;31.80;31.53;96528.34;5043390;28;20072;-58
2023/05/19 13:24:28;;;;;;;10.38;8.05;;;;;;;30.82;32.89;96535.00;5044552;28;20071;-59
2023/05/19 13:26:57;;;;;;;13.15;8.75;;;;;;;32.30;31.33;96531.13;5044584;28;20112;-59
2023/05/19 13:29:26;;;;;;;9.98;7.70;;;;;;;32.72;30.34;96519.66;5041042;28;20081;-58
2023/05/19 13:31:55;;;;;;;14.98;8.52;;;;;;;31.19;31.84;96512.13;5042389;28;20633;-60
2023/05/19 13:34:24;;;;;;;10.43;7.97;;;;;;;33.24;30.66;96507.22;5051200;28;20072;-60
2023/05/19 13:36:54;;;;;;;11.18;8.18;;;;;;;32.41;31.35;96502.66;5046265;28;20441;-58
2023/05/19 13:39:22;;;;;;;12.63;9.10;;;;;;;33.02;31.00;96502.22;5049441;28;20073;-55
2023/05/19 13:41:51;;;;;;;11.43;8.73;;;;;;;33.92;30.17;96500.72;5047363;28;20081;-58
2023/05/19 13:44:19;;;;;;;10.45;7.22;;;;;;;33.27;30.72;96503.09;5047216;28;20071;-60
2023/05/19 13:46:48;;;;;;;10.25;7.53;;;;;;;33.56;29.77;96492.16;5043555;28;20080;-57
2023/05/19 13:49:19;;;;;;;11.38;8.32;;;;;;;31.56;31.98;96500.06;5047012;28;20492;-58
2023/05/19 13:51:47;;;;;;;10.90;8.70;;;;;;;31.23;33.02;96488.66;5048398;28;20072;-57
2023/05/19 13:54:17;;;;;;;10.57;8.63;;;;;;;30.56;34.03;96496.06;5044707;28;20085;-59
2023/05/19 13:56:47;;;;;;;10.05;7.43;;;;;;;31.49;32.34;96486.72;5047616;28;20285;-59
2023/05/19 13:59:16;;;;;;;9.07;6.88;;;;;;;32.77;31.54;96484.13;5037859;28;20083;-60
2023/05/19 14:01:45;;;;;;;10.82;7.78;;;;;;;31.32;33.70;96489.78;5041082;28;20105;-59
2023/05/19 14:04:16;;;;;;;13.40;7.43;;;;;;;31.61;32.75;96484.50;5044694;28;20452;-58
2023/05/19 14:06:45;;;;;;;9.50;6.80;;;;;;;35.21;28.63;96477.75;5044530;28;20080;-57
2023/05/19 14:09:13;;;;;;;10.50;7.22;;;;;;;35.34;28.40;96469.53;5038457;28;20061;-59
2023/05/19 14:11:43;;;;;;;7.97;6.35;;;;;;;34.30;29.15;96470.66;5043301;28;20088;-58
2023/05/19 14:14:11;;;;;;;6.10;4.65;;;;;;;33.69;30.21;96474.19;5043195;28;20159;-58
2023/05/19 14:16:40;;;;;;;10.27;6.30;;;;;;;32.12;31.17;96478.00;5045944;28;20102;-56
2023/05/19 14:19:08;;;;;;;8.23;5.55;;;;;;;33.35;30.34;96475.13;5042584;28;20065;-58
2023/05/19 14:21:37;;;;;;;8.63;6.13;;;;;;;34.08;30.83;96479.47;5046208;28;20083;-59
2023/05/19 14:24:06;;;;;;;8.63;7.18;;;;;;;32.47;31.45;96473.44;5042196;28;20080;-58
2023/05/19 14:26:34;;;;;;;9.57;6.85;;;;;;;31.12;33.08;96476.16;5042153;28;20508;-58
2023/05/19 14:29:04;;;;;;;9.80;6.30;;;;;;;32.56;32.23;96474.47;5046983;28;20084;-57
2023/05/19 14:31:33;;;;;;;11.30;6.90;;;;;;;33.04;31.29;96469.97;5043726;28;20544;-54
2023/05/19 14:34:01;;;;;;;34.80;20.55;;;;;;;32.22;31.71;96469.75;5040932;28;20069;-57
2023/05/19 14:36:29;;;;;;;29.17;17.60;;;;;;;31.57;32.75;96474.44;5038269;28;20129;-58
2023/05/19 14:38:58;;;;;;;89.40;47.97;;;;;;;30.60;33.91;96474.56;5043426;28;20084;-58
2023/05/19 14:41:26;;;;;;;10.93;6.72;;;;;;;31.56;32.73;96475.53;5041016;28;20069;-59
2023/05/19 14:43:55;;;;;;;10.98;9.73;;;;;;;31.34;33.65;96473.13;5038653;28;20064;-58
2023/05/19 14:46:25;;;;;;;10.88;7.30;;;;;;;32.30;32.80;96468.34;5049006;28;20073;-57
2023/05/19 14:48:53;;;;;;;12.00;6.32;;;;;;;34.42;29.58;96459.28;5042928;28;20077;-56
2023/05/19 14:51:22;;;;;;;7.32;5.55;;;;;;;33.77;29.92;96465.38;5042398;28;20523;-58
2023/05/19 14:53:50;;;;;;;7.85;6.07;;;;;;;33.59;30.71;96468.84;5048852;28;20092;-57
2023/05/19 14:56:18;;;;;;;8.07;5.50;;;;;;;33.79;30.12;96460.41;5046831;28;20087;-57
2023/05/19 14:58:46;;;;;;;7.15;5.45;;;;;;;35.09;28.52;96450.78;5040543;28;20490;-57
2023/05/19 15:01:15;;;;;;;9.18;4.57;;;;;;;33.57;30.57;96463.69;5042332;28;20095;-58
2023/05/19 15:03:44;;;;;;;8.20;5.32;;;;;;;33.06;31.40;96456.81;5040480;28;20076;-58
2023/05/19 15:06:13;;;;;;;8.13;5.78;;;;;;;32.95;32.08;96460.78;5042382;28;20068;-58
2023/05/19 15:08:41;;;;;;;7.50;5.50;;;;;;;33.33;30.62;96456.28;5039963;28;20091;-58
2023/05/19 15:11:09;;;;;;;6.78;4.80;;;;;;;33.89;29.83;96456.72;5044456;28;20103;-59
2023/05/19 15:13:38;;;;;;;8.30;4.60;;;;;;;33.39;30.91;96458.97;5044060;28;20073;-58
2023/05/19 15:16:09;;;;;;;7.85;4.45;;;;;;;32.02;32.54;96467.97;5048095;28;20073;-58
2023/05/19 15:18:46;;;;;;;6.88;4.88;;;;;;;32.18;32.05;96454.25;5042621;28;20115;-56
2023/05/19 15:21:15;;;;;;;10.32;4.68;;;;;;;32.83;31.28;96457.59;5036723;28;20092;-55
2023/05/19 15:23:43;;;;;;;5.55;4.00;;;;;;;33.23;30.49;96452.84;5043133;28;20301;-55
2023/05/19 15:26:12;;;;;;;6.75;4.50;;;;;;;31.56;32.77;96460.00;5043391;28;20080;-57
2023/05/19 15:28:40;;;;;;;6.07;5.00;;;;;;;31.09;33.60;96457.66;5042734;28;20068;-55
2023/05/19 15:31:09;;;;;;;8.50;4.88;;;;;;;31.97;32.54;96442.63;5042443;28;20077;-55
2023/05/19 15:33:37;;;;;;;8.70;4.75;;;;;;;33.70;30.77;96446.56;5042995;28;20079;-57
2023/05/19 15:36:07;;;;;;;7.85;5.75;;;;;;;31.84;32.18;96444.84;5040530;28;20529;-58
2023/05/19 15:38:36;;;;;;;7.35;5.25;;;;;;;31.80;32.76;96441.06;5044163;28;20091;-55
2023/05/19 15:41:06;;;;;;;8.52;4.68;;;;;;;31.04;33.76;96444.88;5043600;28;20087;-58
2023/05/19 15:43:34;;;;;;;;;;;;;;;33.26;31.85;96431.19;5047779;28;20470;-53
2023/05/19 15:46:03;;;;;;;8.73;4.55;;;;;;;33.14;30.96;96422.59;5040703;28;19956;-56
2023/05/19 15:48:32;;;;;;;6.23;4.60;;;;;;;31.12;32.75;96432.56;5043265;28;20461;-54
2023/05/19 15:51:00;;;;;;;6.22;4.55;;;;;;;32.73;31.42;96423.00;5036922;28;20072;-57
2023/05/19 15:53:30;;;;;;;4.97;4.13;;;;;;;32.94;30.98;96417.31;5040321;28;20072;-56
2023/05/19 15:55:58;;;;;;;6.25;4.43;;;;;;;32.37;32.16;96412.31;5038223;28;20085;-56
2023/05/19 15:58:26;;;;;;;9.55;3.92;;;;;;;31.49;33.05;96415.88;5047385;28;20643;-58